Time;durP1;ratioP1;P1;durP2;ratioP2;P2;SDS_P1;SDS_P2;PMS_P1;PMS_P2;Temp;Humidity;BMP_temperature;BMP_pressure;BME280_temperature;BME280_humidity;BME280_pressure;Samples;Min_cycle;Max_cycle;Signal;HPM_P1;HPM_P2
2023/03/03 00:00:28;;;;;;;60.23;27.33;;;0.50;99.90;;;;;;5004913;28;20517;-60
2023/03/03 00:02:57;;;;;;;58.93;26.13;;;0.50;99.90;;;;;;5004790;28;20224;-59
2023/03/03 00:05:22;;;;;;;63.07;28.53;;;0.40;99.90;;;;;;5007100;28;20735;-59
2023/03/03 00:07:48;;;;;;;64.80;28.10;;;0.40;99.90;;;;;;5008583;28;20437;-59
2023/03/03 00:10:13;;;;;;;58.00;27.40;;;0.30;99.90;;;;;;5002270;28;20269;-60
2023/03/03 00:12:47;;;;;;;65.30;27.90;;;0.30;99.90;;;;;;5003610;28;20652;-59
2023/03/03 00:15:19;;;;;;;69.50;27.63;;;0.20;99.90;;;;;;5005626;28;20206;-59
2023/03/03 00:17:45;;;;;;;63.53;27.37;;;0.20;99.90;;;;;;5006649;28;20428;-60
2023/03/03 00:20:29;;;;;;;63.63;27.67;;;0.20;99.90;;;;;;5002696;28;20822;-59
2023/03/03 00:22:55;;;;;;;69.07;28.10;;;0.10;99.90;;;;;;5012848;28;20436;-59
2023/03/03 00:25:32;;;;;;;69.30;28.13;;;0.10;99.90;;;;;;5007819;28;20469;-59
2023/03/03 00:28:13;;;;;;;67.93;28.33;;;0.10;99.90;;;;;;5002312;28;20978;-60
2023/03/03 00:30:38;;;;;;;56.50;27.50;;;0.10;99.90;;;;;;5009754;28;20822;-59
2023/03/03 00:33:29;;;;;;;61.30;29.03;;;0.00;99.90;;;;;;5005498;28;20429;-59
2023/03/03 00:35:56;;;;;;;62.43;27.47;;;0.00;99.90;;;;;;5005644;28;20711;-59
2023/03/03 00:38:22;;;;;;;71.00;28.67;;;0.00;99.90;;;;;;5002342;28;20461;-60
2023/03/03 00:40:48;;;;;;;57.20;27.17;;;0.00;99.90;;;;;;5007865;28;20429;-60
2023/03/03 00:43:19;;;;;;;67.27;27.10;;;0.00;99.90;;;;;;5010530;28;20793;-59
2023/03/03 00:45:51;;;;;;;60.63;26.03;;;-0.10;99.90;;;;;;5006026;28;20477;-59
2023/03/03 00:48:28;;;;;;;71.33;29.00;;;-0.10;99.90;;;;;;5010295;28;20428;-58
2023/03/03 00:50:56;;;;;;;64.87;28.00;;;-0.10;99.90;;;;;;5010988;28;20465;-58
2023/03/03 00:53:24;;;;;;;66.23;28.40;;;-0.10;99.90;;;;;;5010602;28;20439;-59
2023/03/03 00:55:52;;;;;;;61.10;26.93;;;-0.10;99.90;;;;;;5022441;28;20458;-59
2023/03/03 00:58:20;;;;;;;67.27;28.90;;;-0.20;99.90;;;;;;5009093;28;20483;-59
2023/03/03 01:00:47;;;;;;;81.13;29.83;;;-0.20;99.90;;;;;;5004829;28;20437;-60
2023/03/03 01:03:16;;;;;;;61.93;27.77;;;-0.20;99.90;;;;;;5000373;28;20433;-59
2023/03/03 01:05:42;;;;;;;61.33;28.87;;;-0.20;99.90;;;;;;5007920;28;20466;-59
2023/03/03 01:08:08;;;;;;;61.33;28.60;;;-0.20;99.90;;;;;;5009703;28;20845;-60
2023/03/03 01:10:37;;;;;;;66.37;29.70;;;-0.30;99.90;;;;;;5007531;28;20175;-59
2023/03/03 01:13:04;;;;;;;62.47;27.97;;;-0.30;99.90;;;;;;5004682;28;20195;-59
2023/03/03 01:15:30;;;;;;;74.43;29.20;;;-0.30;99.90;;;;;;5007965;28;20508;-59
2023/03/03 01:17:56;;;;;;;64.27;29.20;;;-0.40;99.90;;;;;;5007402;28;20805;-60
2023/03/03 01:20:22;;;;;;;60.30;26.50;;;-0.40;99.90;;;;;;5008267;28;20438;-60
2023/03/03 01:22:48;;;;;;;69.30;29.10;;;-0.40;99.90;;;;;;5008633;28;20186;-59
2023/03/03 01:25:13;;;;;;;73.70;27.50;;;-0.40;99.90;;;;;;5003562;28;21053;-59
2023/03/03 01:27:39;;;;;;;65.07;26.97;;;-0.40;99.90;;;;;;5006545;28;20175;-59
2023/03/03 01:30:07;;;;;;;73.30;30.60;;;-0.40;99.90;;;;;;5006899;28;20184;-59
2023/03/03 01:32:33;;;;;;;65.33;28.73;;;-0.40;99.90;;;;;;5001874;28;20179;-60
2023/03/03 01:34:58;;;;;;;66.20;28.13;;;-0.40;99.90;;;;;;5005349;28;20453;-59
2023/03/03 01:37:24;;;;;;;73.00;31.10;;;-0.40;99.90;;;;;;5001931;28;20434;-59
2023/03/03 01:39:51;;;;;;;75.70;33.27;;;-0.50;99.90;;;;;;5006887;28;20183;-59
2023/03/03 01:42:17;;;;;;;65.83;30.33;;;-0.50;99.90;;;;;;5005669;28;20199;-59
2023/03/03 01:44:43;;;;;;;71.60;30.77;;;-0.50;99.90;;;;;;4999245;28;20508;-59
2023/03/03 01:47:16;;;;;;;72.57;30.90;;;-0.50;99.90;;;;;;5006539;28;20457;-59
2023/03/03 01:49:45;;;;;;;75.33;30.30;;;-0.50;99.90;;;;;;5005280;28;20205;-59
2023/03/03 01:52:20;;;;;;;72.80;30.07;;;-0.50;99.90;;;;;;5002176;28;20513;-59
2023/03/03 01:54:53;;;;;;;72.13;29.43;;;-0.60;99.90;;;;;;5003716;28;20697;-60
2023/03/03 01:57:26;;;;;;;72.73;28.93;;;-0.60;99.90;;;;;;5003023;28;20934;-58
2023/03/03 01:59:53;;;;;;;67.90;29.87;;;-0.60;99.90;;;;;;5007329;28;20437;-60
2023/03/03 02:02:19;;;;;;;71.33;28.97;;;-0.60;99.90;;;;;;5003702;28;20449;-59
2023/03/03 02:04:45;;;;;;;80.50;30.00;;;-0.70;99.90;;;;;;5007727;28;20469;-59
2023/03/03 02:07:13;;;;;;;67.97;29.97;;;-0.70;99.90;;;;;;5019186;28;20461;-60
2023/03/03 02:09:54;;;;;;;59.97;27.33;;;-0.70;99.90;;;;;;5005072;28;20517;-59
2023/03/03 02:12:24;;;;;;;64.37;29.40;;;-0.80;99.90;;;;;;5003958;28;20520;-58
2023/03/03 02:14:50;;;;;;;68.37;27.93;;;-0.80;99.90;;;;;;5009544;28;21025;-60
2023/03/03 02:17:16;;;;;;;63.00;28.97;;;-0.80;99.90;;;;;;5001178;28;20445;-58
2023/03/03 02:20:00;;;;;;;62.33;27.10;;;-0.80;99.90;;;;;;5007979;28;20225;-59
2023/03/03 02:22:49;;;;;;;78.90;29.20;;;-0.80;99.90;;;;;;5006495;28;20178;-58
2023/03/03 02:25:26;;;;;;;66.33;26.77;;;-0.80;99.90;;;;;;5000664;28;20465;-62
2023/03/03 02:27:52;;;;;;;62.90;27.47;;;-0.90;99.90;;;;;;5002989;28;20429;-60
2023/03/03 02:30:20;;;;;;;73.77;28.20;;;-0.80;99.90;;;;;;5005248;28;20448;-60
2023/03/03 02:32:46;;;;;;;55.60;26.10;;;-0.90;99.90;;;;;;5006047;28;20430;-59
2023/03/03 02:35:41;;;;;;;82.93;31.17;;;-0.90;99.90;;;;;;5009034;28;20523;-60
2023/03/03 02:38:25;;;;;;;64.63;27.73;;;-0.90;99.90;;;;;;5000279;28;20864;-60
2023/03/03 02:41:10;;;;;;;65.03;30.00;;;-0.90;99.90;;;;;;5005345;28;20525;-60
2023/03/03 02:43:48;;;;;;;58.77;27.17;;;-0.90;99.90;;;;;;5001822;28;20515;-61
2023/03/03 02:46:14;;;;;;;64.23;26.87;;;-0.90;99.90;;;;;;5004990;28;20452;-60
2023/03/03 02:48:39;;;;;;;71.90;29.00;;;-0.90;99.90;;;;;;5001575;28;20430;-60
2023/03/03 02:51:05;;;;;;;59.83;26.40;;;-0.90;99.90;;;;;;4999092;28;22123;-58
2023/03/03 02:53:31;;;;;;;66.87;28.30;;;-0.90;99.90;;;;;;4998357;28;20522;-60
2023/03/03 02:55:56;;;;;;;65.07;27.37;;;-1.00;99.90;;;;;;4996575;28;20235;-59
2023/03/03 02:58:22;;;;;;;69.87;27.37;;;-1.00;99.90;;;;;;5005554;28;20232;-60
2023/03/03 03:00:48;;;;;;;60.27;28.87;;;-1.00;99.90;;;;;;5000294;28;20183;-61
2023/03/03 03:03:13;;;;;;;69.07;27.57;;;-1.00;99.90;;;;;;5006248;28;20269;-60
2023/03/03 03:05:39;;;;;;;69.67;27.87;;;-1.00;99.90;;;;;;5003651;28;20718;-60
2023/03/03 03:08:05;;;;;;;71.07;30.50;;;-1.00;99.90;;;;;;4999997;28;20171;-59
2023/03/03 03:10:31;;;;;;;72.40;27.73;;;-1.10;99.90;;;;;;5002080;28;20508;-60
2023/03/03 03:12:57;;;;;;;64.23;27.53;;;-1.10;99.90;;;;;;5009205;28;20445;-60
2023/03/03 03:15:22;;;;;;;69.03;28.53;;;-1.10;99.90;;;;;;5007762;28;20488;-59
2023/03/03 03:17:48;;;;;;;63.33;27.10;;;-1.10;99.90;;;;;;5004470;28;20179;-59
2023/03/03 03:20:14;;;;;;;65.90;28.10;;;-1.10;99.90;;;;;;5002389;28;20178;-59
2023/03/03 03:22:39;;;;;;;59.67;27.47;;;-1.20;99.90;;;;;;5009940;28;20433;-59
2023/03/03 03:25:06;;;;;;;61.20;28.20;;;-1.10;99.90;;;;;;5006738;28;20202;-60
2023/03/03 03:27:31;;;;;;;64.13;29.30;;;-1.10;99.90;;;;;;5006028;28;20188;-59
2023/03/03 03:29:57;;;;;;;66.50;28.30;;;-1.10;99.90;;;;;;5007891;28;20541;-59
2023/03/03 03:32:22;;;;;;;67.30;26.70;;;-1.10;99.90;;;;;;5006336;28;20186;-60
2023/03/03 03:34:48;;;;;;;67.07;26.97;;;-1.10;99.90;;;;;;5006390;28;20801;-60
2023/03/03 03:37:14;;;;;;;61.47;25.80;;;-1.10;99.90;;;;;;5001958;28;20192;-59
2023/03/03 03:39:40;;;;;;;61.83;25.20;;;-1.00;99.90;;;;;;5004653;28;20185;-60
2023/03/03 03:42:05;;;;;;;63.13;27.60;;;-1.10;99.90;;;;;;5003197;28;20907;-61
2023/03/03 03:44:31;;;;;;;60.33;26.53;;;-1.00;99.90;;;;;;5003403;28;20822;-59
2023/03/03 03:46:57;;;;;;;61.27;26.87;;;-1.10;99.90;;;;;;5004695;28;20182;-59
2023/03/03 03:49:22;;;;;;;66.30;28.57;;;-1.00;99.90;;;;;;5005207;28;20175;-59
2023/03/03 03:51:48;;;;;;;62.20;27.60;;;-1.00;99.90;;;;;;4999850;28;20175;-60
2023/03/03 03:54:14;;;;;;;59.30;25.23;;;-1.00;99.90;;;;;;5004087;28;20213;-60
2023/03/03 03:56:39;;;;;;;68.23;28.90;;;-1.00;99.90;;;;;;5004213;28;20196;-59
2023/03/03 03:59:06;;;;;;;61.33;26.87;;;-1.00;99.90;;;;;;5007659;28;20186;-59
2023/03/03 04:01:32;;;;;;;61.53;27.90;;;-1.00;99.90;;;;;;5007310;28;20182;-59
2023/03/03 04:03:57;;;;;;;59.53;26.07;;;-1.00;99.90;;;;;;5011646;28;20472;-59
2023/03/03 04:06:23;;;;;;;62.20;28.70;;;-1.00;99.90;;;;;;5005348;28;20194;-59
2023/03/03 04:08:49;;;;;;;60.83;25.77;;;-1.00;99.90;;;;;;5007161;28;20186;-60
2023/03/03 04:11:14;;;;;;;69.00;28.50;;;-1.00;99.90;;;;;;5005364;28;20676;-60
2023/03/03 04:13:40;;;;;;;63.00;28.70;;;-1.00;99.90;;;;;;5024419;28;20219;-59
2023/03/03 04:16:05;;;;;;;62.20;26.97;;;-1.00;99.90;;;;;;5011603;28;20553;-59
2023/03/03 04:18:31;;;;;;;73.50;29.70;;;-1.00;99.90;;;;;;5006894;28;20179;-59
2023/03/03 04:20:57;;;;;;;61.97;26.70;;;-1.00;99.90;;;;;;5005620;28;20210;-59
2023/03/03 04:23:22;;;;;;;76.20;30.13;;;-1.00;99.90;;;;;;5012958;28;20629;-60
2023/03/03 04:25:48;;;;;;;68.43;28.13;;;-1.00;99.90;;;;;;5008678;28;20229;-59
2023/03/03 04:28:16;;;;;;;72.87;29.60;;;-0.90;99.90;;;;;;5003423;28;20603;-60
2023/03/03 04:30:41;;;;;;;66.80;28.63;;;-0.90;99.90;;;;;;5009156;28;20564;-59
2023/03/03 04:33:07;;;;;;;78.83;30.67;;;-0.90;99.90;;;;;;5010089;28;21057;-61
2023/03/03 04:35:33;;;;;;;79.90;31.97;;;-0.90;99.90;;;;;;5007099;28;20260;-60
2023/03/03 04:37:59;;;;;;;84.23;31.80;;;-0.80;99.90;;;;;;5002535;28;20445;-59
2023/03/03 04:40:25;;;;;;;78.53;32.33;;;-0.80;99.90;;;;;;5007375;28;20430;-60
2023/03/03 04:42:51;;;;;;;73.37;31.43;;;-0.80;99.90;;;;;;5006403;28;20444;-60
2023/03/03 04:45:17;;;;;;;85.40;30.43;;;-0.80;99.90;;;;;;5009112;28;20473;-60
2023/03/03 04:47:43;;;;;;;84.03;31.97;;;-0.80;99.90;;;;;;5010389;28;20271;-60
2023/03/03 04:50:09;;;;;;;75.50;31.37;;;-0.80;99.90;;;;;;5008647;28;20533;-60
2023/03/03 04:52:35;;;;;;;67.43;29.53;;;-0.80;99.90;;;;;;4995511;28;20435;-60
2023/03/03 04:55:01;;;;;;;84.30;30.97;;;-0.70;99.90;;;;;;4991886;28;20508;-61
2023/03/03 04:57:26;;;;;;;93.30;31.50;;;-0.70;99.90;;;;;;5005558;28;20193;-61
2023/03/03 04:59:52;;;;;;;76.10;32.07;;;-0.70;99.90;;;;;;5004633;28;20190;-62
2023/03/03 05:02:18;;;;;;;79.30;29.50;;;-0.70;99.90;;;;;;5001302;28;20173;-60
2023/03/03 05:04:44;;;;;;;81.67;30.47;;;-0.70;99.90;;;;;;5023695;28;20307;-60
2023/03/03 05:07:09;;;;;;;84.20;31.73;;;-0.70;99.90;;;;;;5003801;28;20426;-60
2023/03/03 05:09:35;;;;;;;80.90;31.80;;;-0.70;99.90;;;;;;5009135;28;20718;-61
2023/03/03 05:12:01;;;;;;;72.77;32.07;;;-0.70;99.90;;;;;;5002945;28;20541;-60
2023/03/03 05:14:27;;;;;;;74.20;30.70;;;-0.60;99.90;;;;;;4998071;28;20444;-60
2023/03/03 05:16:53;;;;;;;75.93;28.60;;;-0.60;99.90;;;;;;5004756;28;20186;-60
2023/03/03 05:19:19;;;;;;;82.90;31.90;;;-0.60;99.90;;;;;;5005744;28;21305;-62
2023/03/03 05:21:44;;;;;;;74.03;31.40;;;-0.60;99.90;;;;;;4997540;28;20467;-60
2023/03/03 05:24:11;;;;;;;80.87;31.27;;;-0.60;99.90;;;;;;4994386;28;20234;-60
2023/03/03 05:26:37;;;;;;;91.90;31.80;;;-0.60;99.90;;;;;;5003390;28;20209;-60
2023/03/03 05:29:03;;;;;;;84.37;32.20;;;-0.60;99.90;;;;;;5002728;28;20464;-60
2023/03/03 05:31:29;;;;;;;92.70;33.00;;;-0.50;99.90;;;;;;5001222;28;20427;-59
2023/03/03 05:33:55;;;;;;;82.37;30.20;;;-0.50;99.90;;;;;;4997445;28;20949;-59
2023/03/03 05:36:20;;;;;;;78.23;29.00;;;-0.50;99.90;;;;;;5001888;28;20221;-59
2023/03/03 05:38:46;;;;;;;84.60;30.20;;;-0.50;99.90;;;;;;4999442;28;20209;-59
2023/03/03 05:41:12;;;;;;;84.83;30.37;;;-0.50;99.90;;;;;;4999055;28;20186;-61
2023/03/03 05:43:37;;;;;;;84.33;33.80;;;-0.50;99.90;;;;;;4995338;28;20181;-59
2023/03/03 05:46:03;;;;;;;83.20;31.37;;;-0.50;99.90;;;;;;5001147;28;20214;-57
2023/03/03 05:48:29;;;;;;;86.03;32.00;;;-0.50;99.90;;;;;;4998533;28;20745;-59
2023/03/03 05:50:58;;;;;;;90.53;31.23;;;-0.50;99.90;;;;;;4997527;28;20959;-59
2023/03/03 05:53:24;;;;;;;82.73;30.30;;;-0.40;99.90;;;;;;5005162;28;20187;-53
2023/03/03 05:55:50;;;;;;;76.87;31.60;;;-0.50;99.90;;;;;;5000535;28;20896;-58
2023/03/03 05:58:15;;;;;;;76.47;29.53;;;-0.50;99.90;;;;;;4999887;28;20461;-58
2023/03/03 06:00:41;;;;;;;71.73;29.53;;;-0.40;99.90;;;;;;4996281;28;20179;-57
2023/03/03 06:03:06;;;;;;;91.87;32.13;;;-0.40;99.90;;;;;;5007130;28;20275;-58
2023/03/03 06:05:32;;;;;;;75.03;30.90;;;-0.40;99.90;;;;;;5011082;28;20214;-57
2023/03/03 06:07:58;;;;;;;76.40;30.70;;;-0.40;99.90;;;;;;5004037;28;20200;-58
2023/03/03 06:10:24;;;;;;;77.20;30.53;;;-0.40;99.90;;;;;;5005842;28;20194;-57
2023/03/03 06:12:51;;;;;;;87.07;31.17;;;-0.40;99.90;;;;;;5005543;28;20449;-58
2023/03/03 06:15:16;;;;;;;80.93;31.70;;;-0.40;99.90;;;;;;5024643;28;20513;-57
2023/03/03 06:17:43;;;;;;;87.57;34.17;;;-0.40;99.90;;;;;;5009147;28;20490;-57
2023/03/03 06:20:09;;;;;;;88.30;34.17;;;-0.40;99.90;;;;;;5009728;28;20473;-57
2023/03/03 06:22:35;;;;;;;85.33;31.57;;;-0.40;99.90;;;;;;5012161;28;20225;-57
2023/03/03 06:25:00;;;;;;;80.27;33.17;;;-0.40;99.90;;;;;;4997285;28;20476;-58
2023/03/03 06:27:26;;;;;;;94.20;34.20;;;-0.40;99.90;;;;;;5007829;28;20185;-58
2023/03/03 06:29:52;;;;;;;85.20;31.77;;;-0.40;99.90;;;;;;5010792;28;20175;-57
2023/03/03 06:32:17;;;;;;;83.47;30.90;;;-0.50;99.90;;;;;;5006099;28;20191;-58
2023/03/03 06:34:43;;;;;;;93.90;32.77;;;-0.50;99.90;;;;;;5004239;28;20214;-58
2023/03/03 06:37:09;;;;;;;93.87;33.57;;;-0.40;99.90;;;;;;5004060;28;20193;-58
2023/03/03 06:39:34;;;;;;;84.27;32.40;;;-0.40;99.90;;;;;;5008467;28;20224;-57
2023/03/03 06:42:00;;;;;;;95.87;34.33;;;-0.40;99.90;;;;;;5002166;28;20193;-57
2023/03/03 06:44:25;;;;;;;88.33;32.80;;;-0.40;99.90;;;;;;5011456;28;21921;-56
2023/03/03 06:46:52;;;;;;;92.43;33.10;;;-0.40;99.90;;;;;;5008111;28;20186;-57
2023/03/03 06:49:18;;;;;;;81.47;31.80;;;-0.40;99.90;;;;;;5006290;28;20216;-56
2023/03/03 06:51:45;;;;;;;83.90;32.70;;;-0.40;99.90;;;;;;5005630;28;20593;-57
2023/03/03 06:54:12;;;;;;;81.53;32.30;;;-0.40;99.90;;;;;;5006922;28;20261;-57
2023/03/03 06:56:39;;;;;;;76.13;33.23;;;-0.30;99.90;;;;;;5007583;28;20516;-58
2023/03/03 06:59:17;;;;;;;85.90;32.97;;;-0.30;99.90;;;;;;5004635;28;20492;-58
2023/03/03 07:01:43;;;;;;;75.10;30.47;;;-0.30;99.90;;;;;;5005476;28;20578;-58
2023/03/03 07:04:25;;;;;;;74.90;30.70;;;-0.30;99.90;;;;;;4998977;28;20437;-58
2023/03/03 07:06:50;;;;;;;76.33;30.40;;;-0.30;99.90;;;;;;5008568;28;20440;-58
2023/03/03 07:09:28;;;;;;;90.13;32.50;;;-0.30;99.90;;;;;;5010376;28;20637;-58
2023/03/03 07:12:12;;;;;;;80.17;32.97;;;-0.30;99.90;;;;;;5003441;28;20269;-58
2023/03/03 07:14:54;;;;;;;85.00;32.50;;;-0.30;99.90;;;;;;4997006;28;20468;-59
2023/03/03 07:17:22;;;;;;;72.43;31.93;;;-0.20;99.90;;;;;;4998645;28;20516;-58
2023/03/03 07:19:48;;;;;;;75.00;30.30;;;-0.20;99.90;;;;;;4999944;28;20450;-59
2023/03/03 07:22:17;;;;;;;78.43;33.27;;;-0.20;99.90;;;;;;4997380;28;20457;-57
2023/03/03 07:24:45;;;;;;;74.97;31.93;;;-0.10;99.90;;;;;;4995369;28;20474;-57
2023/03/03 07:27:27;;;;;;;82.20;32.47;;;-0.10;99.90;;;;;;4996740;28;20452;-58
2023/03/03 07:30:08;;;;;;;74.57;32.70;;;-0.10;99.90;;;;;;4999448;28;20468;-58
2023/03/03 07:32:45;;;;;;;78.13;31.83;;;0.00;99.90;;;;;;5001395;28;20444;-57
2023/03/03 07:35:29;;;;;;;74.70;32.30;;;0.00;99.90;;;;;;4997394;28;20460;-59
2023/03/03 07:37:55;;;;;;;78.30;32.33;;;0.10;99.90;;;;;;5007041;28;20524;-59
2023/03/03 07:40:36;;;;;;;77.60;31.43;;;0.10;99.90;;;;;;4994359;28;20525;-59
2023/03/03 07:43:33;;;;;;;68.60;28.77;;;0.20;99.90;;;;;;4999184;28;20211;-61
2023/03/03 07:46:23;;;;;;;79.40;30.80;;;0.20;99.90;;;;;;5001448;28;20483;-60
2023/03/03 07:48:51;;;;;;;80.80;32.73;;;0.20;99.90;;;;;;5006662;28;20517;-59
2023/03/03 07:51:28;;;;;;;73.70;31.00;;;0.20;99.90;;;;;;4999073;28;20430;-59
2023/03/03 07:54:27;;;;;;;81.70;32.30;;;0.30;99.90;;;;;;5008122;28;20442;-59
2023/03/03 07:57:10;;;;;;;106.67;33.20;;;0.30;99.90;;;;;;5017747;28;20641;-61
2023/03/03 07:59:40;;;;;;;71.77;31.33;;;0.30;99.90;;;;;;5007095;28;20434;-61
2023/03/03 08:02:27;;;;;;;82.33;32.53;;;0.30;99.90;;;;;;5004150;28;20433;-61
2023/03/03 08:04:53;;;;;;;74.30;30.70;;;0.40;99.90;;;;;;5005546;28;20908;-60
2023/03/03 08:07:21;;;;;;;71.83;29.90;;;0.40;99.90;;;;;;4999541;28;20811;-60
2023/03/03 08:09:47;;;;;;;78.20;33.00;;;0.40;99.90;;;;;;5007354;28;20425;-59
2023/03/03 08:12:18;;;;;;;73.63;31.23;;;0.40;99.90;;;;;;5004317;28;20484;-59
2023/03/03 08:14:45;;;;;;;80.67;33.23;;;0.50;99.90;;;;;;5005473;28;20206;-59
2023/03/03 08:17:19;;;;;;;76.30;31.23;;;0.50;99.90;;;;;;5007281;28;20525;-61
2023/03/03 08:19:45;;;;;;;78.57;30.83;;;0.50;99.90;;;;;;5009221;28;20433;-59
2023/03/03 08:22:22;;;;;;;76.30;32.33;;;0.50;99.90;;;;;;5005427;28;20456;-59
2023/03/03 08:24:48;;;;;;;80.20;32.10;;;0.60;99.90;;;;;;5000981;28;20241;-59
2023/03/03 08:27:13;;;;;;;82.50;33.13;;;0.60;99.90;;;;;;5020731;28;21001;-59
2023/03/03 08:29:39;;;;;;;95.57;35.10;;;0.60;99.90;;;;;;5004851;28;20183;-59
2023/03/03 08:32:05;;;;;;;89.80;34.07;;;0.70;99.90;;;;;;5003805;28;20214;-59
2023/03/03 08:34:30;;;;;;;85.80;33.70;;;0.70;99.90;;;;;;5007605;28;20194;-59
2023/03/03 08:36:57;;;;;;;83.33;33.73;;;0.70;99.90;;;;;;4999314;28;20177;-60
2023/03/03 08:39:23;;;;;;;80.43;33.33;;;0.80;99.90;;;;;;5004180;28;20177;-59
2023/03/03 08:41:48;;;;;;;83.93;33.47;;;0.90;99.90;;;;;;5003317;28;20450;-60
2023/03/03 08:44:14;;;;;;;84.17;34.30;;;0.90;99.90;;;;;;5008919;28;20429;-59
2023/03/03 08:46:40;;;;;;;78.20;34.10;;;1.00;99.90;;;;;;5009741;28;20733;-61
2023/03/03 08:49:06;;;;;;;85.27;34.07;;;1.00;99.90;;;;;;5006938;28;20198;-59
2023/03/03 08:51:33;;;;;;;84.17;31.90;;;1.10;99.90;;;;;;5004029;28;20224;-59
2023/03/03 08:53:59;;;;;;;97.70;34.77;;;1.10;99.90;;;;;;5007849;28;20500;-59
2023/03/03 08:56:24;;;;;;;83.93;34.37;;;1.20;99.90;;;;;;5013054;28;20571;-58
2023/03/03 08:58:50;;;;;;;81.00;33.67;;;1.20;99.90;;;;;;5005712;28;20579;-59
2023/03/03 09:01:16;;;;;;;76.57;34.00;;;1.20;99.90;;;;;;5005383;28;20191;-58
2023/03/03 09:03:43;;;;;;;85.53;34.40;;;1.30;99.90;;;;;;5008987;28;20760;-58
2023/03/03 09:06:08;;;;;;;95.07;34.77;;;1.30;99.90;;;;;;5011207;28;20461;-60
2023/03/03 09:08:34;;;;;;;86.23;34.83;;;1.30;99.90;;;;;;5010530;28;20414;-58
2023/03/03 09:11:01;;;;;;;81.53;34.77;;;1.40;99.90;;;;;;5001967;28;20183;-59
2023/03/03 09:13:28;;;;;;;82.97;36.93;;;1.40;99.90;;;;;;5008661;28;21355;-58
2023/03/03 09:15:56;;;;;;;84.50;35.07;;;1.50;99.90;;;;;;5007498;28;20458;-58
2023/03/03 09:18:30;;;;;;;88.23;33.70;;;1.50;99.90;;;;;;5003819;28;20462;-57
2023/03/03 09:20:56;;;;;;;95.83;35.23;;;1.60;99.90;;;;;;5002138;28;21063;-59
2023/03/03 09:23:34;;;;;;;94.33;35.37;;;1.60;99.90;;;;;;5006511;28;20434;-58
2023/03/03 09:26:25;;;;;;;83.07;35.10;;;1.60;99.90;;;;;;5007645;28;20722;-59
2023/03/03 09:29:08;;;;;;;82.40;33.40;;;1.70;99.90;;;;;;5005241;28;20445;-58
2023/03/03 09:31:51;;;;;;;94.43;35.23;;;1.70;99.90;;;;;;4998626;28;20438;-61
2023/03/03 09:34:37;;;;;;;86.17;34.33;;;1.80;99.90;;;;;;5004831;28;22370;-60
2023/03/03 09:37:36;;;;;;;82.63;33.60;;;1.80;99.90;;;;;;5001075;28;20427;-61
2023/03/03 09:40:46;;;;;;;90.67;34.40;;;1.90;99.90;;;;;;5001760;28;20425;-59
2023/03/03 09:43:30;;;;;;;85.80;34.90;;;2.00;99.90;;;;;;4986456;28;20531;-59
2023/03/03 09:46:12;;;;;;;87.10;35.90;;;2.00;99.90;;;;;;5003624;28;20513;-61
2023/03/03 09:48:50;;;;;;;87.37;34.30;;;2.10;99.90;;;;;;5003836;28;20426;-60
2023/03/03 09:51:36;;;;;;;88.87;36.10;;;2.20;99.90;;;;;;4998628;28;20446;-59
2023/03/03 09:54:05;;;;;;;84.80;35.37;;;2.20;99.90;;;;;;5007270;28;20454;-60
2023/03/03 09:56:37;;;;;;;82.70;36.33;;;2.30;99.90;;;;;;5005783;28;20454;-59
2023/03/03 09:59:50;;;;;;;90.13;35.03;;;2.30;99.90;;;;;;5004259;28;20530;-59
2023/03/03 10:02:41;;;;;;;86.47;36.50;;;2.30;99.90;;;;;;4991742;28;20435;-60
2023/03/03 10:05:39;;;;;;;86.73;34.63;;;2.40;99.90;;;;;;5011727;28;20475;-60
2023/03/03 10:08:35;;;;;;;83.73;36.33;;;2.50;99.90;;;;;;4995871;28;20992;-60
2023/03/03 10:11:19;;;;;;;87.70;37.00;;;2.60;99.90;;;;;;5023349;28;20430;-59
2023/03/03 10:14:07;;;;;;;97.63;37.53;;;2.60;99.90;;;;;;5001006;28;20427;-59
2023/03/03 10:17:05;;;;;;;87.17;35.70;;;2.80;99.90;;;;;;4977702;28;20548;-60
2023/03/03 10:19:36;;;;;;;81.73;34.10;;;2.90;99.90;;;;;;5005640;28;21183;-59
2023/03/03 10:22:23;;;;;;;70.47;33.20;;;3.00;99.90;;;;;;5009345;28;20438;-59
2023/03/03 10:25:26;;;;;;;79.90;34.33;;;3.10;99.90;;;;;;5005993;28;20548;-58
2023/03/03 10:28:12;;;;;;;92.23;35.00;;;3.30;99.90;;;;;;4981689;28;20806;-59
2023/03/03 10:31:06;;;;;;;84.30;35.37;;;3.40;99.90;;;;;;5003338;28;20438;-59
2023/03/03 10:33:40;;;;;;;81.63;35.50;;;3.40;99.90;;;;;;5000889;28;20564;-60
2023/03/03 10:36:09;;;;;;;80.07;34.23;;;3.50;99.90;;;;;;5004010;28;21209;-59
2023/03/03 10:38:49;;;;;;;86.50;36.90;;;3.60;99.90;;;;;;5007449;28;20947;-60
2023/03/03 10:41:25;;;;;;;86.20;36.90;;;3.70;99.90;;;;;;5003609;28;20459;-60
2023/03/03 10:44:12;;;;;;;95.50;37.53;;;3.80;99.90;;;;;;5005035;28;20439;-59
2023/03/03 10:46:59;;;;;;;90.80;38.37;;;4.00;99.90;;;;;;4997569;28;20455;-60
2023/03/03 10:49:39;;;;;;;79.10;35.17;;;4.10;97.00;;;;;;5021980;28;20428;-58
2023/03/03 10:52:30;;;;;;;72.43;33.97;;;4.20;94.10;;;;;;5003267;28;20430;-59
2023/03/03 10:55:11;;;;;;;83.30;35.97;;;4.20;93.30;;;;;;5012045;28;20459;-59
2023/03/03 10:57:45;;;;;;;84.57;36.10;;;4.30;94.40;;;;;;5000536;28;20462;-55
2023/03/03 11:00:19;;;;;;;91.63;36.90;;;4.40;94.20;;;;;;5000800;28;20481;-56
2023/03/03 11:02:56;;;;;;;73.43;34.17;;;4.50;94.80;;;;;;4999289;28;20437;-59
2023/03/03 11:05:40;;;;;;;77.93;35.20;;;4.60;94.10;;;;;;4995942;28;20459;-57
2023/03/03 11:08:35;;;;;;;81.00;35.13;;;4.70;94.00;;;;;;5001330;28;20509;-58
2023/03/03 11:11:34;;;;;;;75.23;34.30;;;4.80;95.10;;;;;;5003415;28;20419;-57
2023/03/03 11:14:15;;;;;;;76.60;33.30;;;5.00;93.40;;;;;;5004506;28;20848;-58
2023/03/03 11:16:52;;;;;;;93.17;35.00;;;5.10;92.40;;;;;;4999377;28;20467;-58
2023/03/03 11:19:23;;;;;;;86.73;37.80;;;5.20;84.70;;;;;;5002127;28;20796;-59
2023/03/03 11:21:48;;;;;;;82.10;34.80;;;5.30;85.90;;;;;;4999571;28;20941;-58
2023/03/03 11:24:38;;;;;;;80.00;33.30;;;5.40;83.50;;;;;;5002771;28;20462;-59
2023/03/03 11:27:41;;;;;;;80.07;34.03;;;5.60;85.00;;;;;;5006612;28;20219;-59
2023/03/03 11:30:34;;;;;;;83.63;33.30;;;5.70;82.90;;;;;;4998760;28;20431;-58
2023/03/03 11:33:14;;;;;;;74.20;33.50;;;5.90;81.90;;;;;;5001256;28;23419;-58
2023/03/03 11:35:54;;;;;;;75.47;31.93;;;6.00;81.30;;;;;;5009500;28;20997;-58
2023/03/03 11:38:48;;;;;;;67.00;30.40;;;6.10;79.80;;;;;;5004311;28;20439;-59
2023/03/03 11:41:26;;;;;;;63.37;30.33;;;6.30;81.00;;;;;;4998374;28;20493;-58
2023/03/03 11:44:02;;;;;;;60.70;31.20;;;6.80;78.20;;;;;;5005495;28;20428;-59
2023/03/03 11:46:55;;;;;;;63.23;30.97;;;7.20;75.70;;;;;;5004717;28;20535;-59
2023/03/03 11:49:35;;;;;;;64.60;31.47;;;7.40;71.70;;;;;;5003581;28;20442;-59
2023/03/03 11:52:46;;;;;;;63.23;29.40;;;7.50;68.70;;;;;;5002084;28;20783;-61
2023/03/03 11:55:14;;;;;;;75.80;31.20;;;7.60;67.00;;;;;;4996466;28;20463;-59
2023/03/03 11:58:02;;;;;;;68.57;28.97;;;7.60;66.50;;;;;;5012741;28;20518;-58
2023/03/03 12:01:00;;;;;;;63.30;29.37;;;7.80;65.90;;;;;;4998667;28;20431;-58
2023/03/03 12:03:26;;;;;;;58.33;28.87;;;8.00;64.20;;;;;;5009011;28;20472;-58
2023/03/03 12:05:51;;;;;;;48.60;25.90;;;8.20;62.90;;;;;;5005813;28;20550;-58
2023/03/03 12:08:29;;;;;;;48.17;26.40;;;8.40;62.60;;;;;;5002224;28;20279;-58
2023/03/03 12:11:03;;;;;;;63.00;26.33;;;8.60;62.00;;;;;;5008497;28;20203;-58
2023/03/03 12:13:44;;;;;;;51.30;25.97;;;8.70;61.20;;;;;;5008002;28;20830;-57
2023/03/03 12:16:38;;;;;;;55.27;27.80;;;8.70;60.20;;;;;;5001029;28;20967;-58
2023/03/03 12:19:20;;;;;;;57.67;26.00;;;8.70;59.90;;;;;;5003864;28;20423;-59
2023/03/03 12:21:54;;;;;;;50.30;25.67;;;8.60;59.70;;;;;;5005839;28;20487;-58
2023/03/03 12:24:32;;;;;;;57.97;26.90;;;8.50;59.60;;;;;;4997613;28;20534;-58
2023/03/03 12:27:32;;;;;;;50.87;25.53;;;8.30;59.40;;;;;;5012069;28;20423;-58
2023/03/03 12:30:09;;;;;;;60.20;26.30;;;8.10;59.50;;;;;;5007618;28;20505;-58
2023/03/03 12:33:12;;;;;;;50.83;26.03;;;8.00;59.80;;;;;;5003413;28;20443;-58
2023/03/03 12:35:56;;;;;;;54.17;25.17;;;7.90;60.30;;;;;;5010265;28;20463;-59
2023/03/03 12:38:39;;;;;;;58.67;25.47;;;7.80;60.50;;;;;;5003579;28;20441;-59
2023/03/03 12:41:18;;;;;;;56.87;26.67;;;7.80;60.40;;;;;;4991830;28;20412;-59
2023/03/03 12:44:05;;;;;;;49.47;25.33;;;7.80;60.80;;;;;;5001325;28;20478;-60
2023/03/03 12:46:42;;;;;;;52.20;23.10;;;7.80;61.10;;;;;;5009220;28;20455;-59
2023/03/03 12:49:08;;;;;;;56.57;24.67;;;7.80;61.00;;;;;;5003169;28;20450;-59
2023/03/03 12:51:58;;;;;;;57.63;24.93;;;7.80;60.80;;;;;;5004248;28;20454;-58
2023/03/03 12:54:49;;;;;;;51.80;26.00;;;7.80;60.60;;;;;;5009738;28;20246;-58
2023/03/03 12:57:36;;;;;;;51.10;25.77;;;7.90;60.50;;;;;;5001419;28;20455;-58